createdAt,value
2022-10-04T00:00:51.482Z,12.31
2022-10-04T00:05:56.711Z,12.42
2022-10-04T00:11:21.741Z,12.43
2022-10-04T00:16:39.761Z,12.56
2022-10-04T00:21:54.835Z,12.51
2022-10-04T00:27:23.061Z,12.70
2022-10-04T00:32:27.665Z,12.69
2022-10-04T00:38:07.799Z,12.61
2022-10-04T00:43:20.862Z,12.86
2022-10-04T00:48:37.038Z,12.72
2022-10-04T00:54:14.611Z,12.63
2022-10-04T00:59:34.835Z,12.71
2022-10-04T01:05:00.724Z,12.52
2022-10-04T01:10:13.962Z,12.52
2022-10-04T01:15:43.187Z,12.66
2022-10-04T01:20:59.125Z,12.42
2022-10-04T01:26:03.020Z,12.13
2022-10-04T01:31:05.326Z,12.35
2022-10-04T01:36:07.692Z,12.33
2022-10-04T01:41:10.953Z,12.40
2022-10-04T01:46:31.483Z,12.19
2022-10-04T01:51:54.397Z,12.23
2022-10-04T01:57:05.348Z,12.05
2022-10-04T02:02:20.677Z,12.08
2022-10-04T02:07:26.143Z,12.38
2022-10-04T02:12:31.474Z,12.16
2022-10-04T02:17:39.177Z,12.31
2022-10-04T02:22:43.215Z,12.42
2022-10-04T02:27:45.416Z,12.43
2022-10-04T02:33:00.379Z,12.29
2022-10-04T02:38:19.085Z,12.27
2022-10-04T02:43:30.370Z,12.21
2022-10-04T02:48:52.020Z,12.26
2022-10-04T02:54:35.301Z,12.34
2022-10-04T02:59:39.579Z,12.05
2022-10-04T03:04:41.696Z,12.31
2022-10-04T03:09:43.685Z,12.27
2022-10-04T03:14:45.705Z,12.32
2022-10-04T03:19:51.452Z,12.30
2022-10-04T03:24:57.056Z,12.41
2022-10-04T03:30:02.004Z,12.23
2022-10-04T03:35:12.890Z,12.33
2022-10-04T03:40:15.342Z,12.18
2022-10-04T03:45:19.731Z,12.34
2022-10-04T03:50:24.883Z,12.43
2022-10-04T03:55:35.437Z,12.38
2022-10-04T04:00:44.266Z,12.32
2022-10-04T04:06:00.384Z,12.31
2022-10-04T04:11:05.057Z,12.34
2022-10-04T04:16:09.463Z,12.20
2022-10-04T04:21:18.642Z,12.26
2022-10-04T04:26:42.340Z,12.42
2022-10-04T04:31:51.944Z,12.33
2022-10-04T04:36:59.383Z,12.16
2022-10-04T04:42:10.437Z,12.50
2022-10-04T04:47:22.069Z,12.32
2022-10-04T04:52:27.599Z,12.52
2022-10-04T04:57:29.591Z,12.38
2022-10-04T05:02:38.069Z,12.62
2022-10-04T05:07:43.542Z,12.77
2022-10-04T05:12:47.122Z,12.75
2022-10-04T05:17:49.029Z,12.49
2022-10-04T05:22:51.511Z,12.50
2022-10-04T05:27:54.592Z,12.74
2022-10-04T05:33:07.293Z,12.84
2022-10-04T05:38:30.897Z,12.71
2022-10-04T05:43:37.690Z,12.96
2022-10-04T05:48:41.470Z,13.14
2022-10-04T05:53:44.192Z,13.11
2022-10-04T05:59:04.637Z,13.27
2022-10-04T06:04:49.821Z,13.43
2022-10-04T06:10:19.595Z,13.41
2022-10-04T06:15:59.115Z,13.02
2022-10-04T06:21:21.458Z,13.26
2022-10-04T06:26:30.357Z,13.44
2022-10-04T06:31:58.696Z,13.56
2022-10-04T06:37:32.010Z,13.40
2022-10-04T06:42:56.228Z,13.71
2022-10-04T06:48:16.824Z,14.22
2022-10-04T06:53:30.065Z,14.62
2022-10-04T06:59:00.514Z,14.68
2022-10-04T07:04:37.662Z,14.43
2022-10-04T07:09:57.761Z,14.52
2022-10-04T07:15:05.134Z,14.77
2022-10-04T07:20:17.986Z,13.97
2022-10-04T07:25:24.196Z,14.41
2022-10-04T07:30:37.952Z,14.81
2022-10-04T07:35:47.557Z,14.39
2022-10-04T07:40:58.540Z,14.60
2022-10-04T07:46:38.556Z,14.56
2022-10-04T07:52:10.262Z,14.77
2022-10-04T07:57:36.257Z,14.55
2022-10-04T08:02:54.603Z,14.69
2022-10-04T08:08:04.781Z,15.23
2022-10-04T08:13:37.373Z,15.37
2022-10-04T08:19:00.389Z,15.15
2022-10-04T08:24:21.950Z,15.57
2022-10-04T08:30:04.810Z,16.34
2022-10-04T08:35:06.836Z,15.56
2022-10-04T08:40:36.745Z,15.33
2022-10-04T08:45:44.867Z,15.53
2022-10-04T08:51:24.429Z,15.60
2022-10-04T08:56:44.520Z,16.01
2022-10-04T09:01:55.424Z,16.22
2022-10-04T09:07:15.324Z,16.16
2022-10-04T09:12:44.431Z,16.76
2022-10-04T09:18:05.874Z,16.64
2022-10-04T09:23:37.531Z,16.63
2022-10-04T09:29:02.460Z,16.07
2022-10-04T09:34:44.234Z,16.07
2022-10-04T09:40:27.485Z,16.32
2022-10-04T09:45:47.693Z,16.71
2022-10-04T09:51:08.099Z,16.91
2022-10-04T09:56:13.116Z,17.10
2022-10-04T10:01:21.171Z,16.94
2022-10-04T10:06:41.699Z,16.78
2022-10-04T10:12:21.227Z,16.80
2022-10-04T10:17:37.962Z,16.30
2022-10-04T10:22:58.385Z,16.77
2022-10-04T10:28:26.408Z,17.35
2022-10-04T10:33:40.268Z,16.92
2022-10-04T10:38:55.269Z,16.91
2022-10-04T10:44:29.723Z,17.48
2022-10-04T10:49:48.171Z,16.65
2022-10-04T10:55:19.508Z,16.63
2022-10-04T11:00:23.967Z,16.64
2022-10-04T11:06:25.172Z,16.90
2022-10-04T11:11:56.122Z,17.51
2022-10-04T11:17:10.269Z,17.31
2022-10-04T11:22:24.522Z,16.96
2022-10-04T11:27:51.848Z,17.40
2022-10-04T11:33:26.857Z,17.68
2022-10-04T11:38:49.014Z,17.14
2022-10-04T11:44:05.367Z,17.51
2022-10-04T11:49:13.417Z,17.48
2022-10-04T11:55:02.102Z,17.93
2022-10-04T12:00:20.882Z,17.79
2022-10-04T12:05:29.682Z,17.41
2022-10-04T12:10:38.390Z,17.88
2022-10-04T12:16:05.667Z,17.07
2022-10-04T12:21:35.084Z,17.35
2022-10-04T12:26:59.753Z,17.73
2022-10-04T12:32:12.158Z,17.46
2022-10-04T12:37:39.028Z,17.64
2022-10-04T12:43:06.148Z,17.28
2022-10-04T12:48:13.722Z,17.81
2022-10-04T12:53:34.708Z,17.56
2022-10-04T12:58:43.291Z,18.08
2022-10-04T13:03:54.375Z,18.00
2022-10-04T13:08:57.556Z,18.32
2022-10-04T13:14:25.821Z,17.89
2022-10-04T13:19:58.448Z,17.91
2022-10-04T13:25:15.530Z,18.18
2022-10-04T13:31:00.653Z,17.31
2022-10-04T13:36:08.941Z,17.90
2022-10-04T13:42:10.132Z,18.28
2022-10-04T13:47:38.829Z,17.88
2022-10-04T13:53:14.649Z,17.41
2022-10-04T13:58:45.851Z,17.63
2022-10-04T14:04:32.227Z,17.63
2022-10-04T14:09:52.581Z,17.96
2022-10-04T14:15:25.731Z,18.19
2022-10-04T14:21:19.025Z,18.04
2022-10-04T14:26:34.255Z,17.52
2022-10-04T14:31:51.943Z,17.48
2022-10-04T14:36:54.109Z,17.34
2022-10-04T14:42:34.344Z,17.02
2022-10-04T14:48:18.497Z,16.78
2022-10-04T14:53:32.562Z,16.73
2022-10-04T14:59:04.895Z,16.41
2022-10-04T15:04:27.613Z,16.33
2022-10-04T15:09:50.582Z,16.54
2022-10-04T15:14:58.602Z,16.36
2022-10-04T15:20:22.975Z,16.17
2022-10-04T15:25:51.958Z,16.25
2022-10-04T15:31:25.573Z,15.91
2022-10-04T15:36:50.606Z,15.86
2022-10-04T15:42:07.860Z,15.68
2022-10-04T15:47:35.331Z,15.87
2022-10-04T15:52:44.237Z,15.75
2022-10-04T15:57:46.307Z,15.69
2022-10-04T16:02:51.255Z,15.49
2022-10-04T16:08:29.848Z,15.46
2022-10-04T16:13:57.183Z,15.24
2022-10-04T16:19:16.088Z,15.01
2022-10-04T16:24:20.440Z,14.85
2022-10-04T16:30:21.789Z,14.68
2022-10-04T16:35:45.800Z,14.55
2022-10-04T16:40:50.708Z,14.45
2022-10-04T16:46:11.237Z,14.24
2022-10-04T16:51:13.295Z,14.28
2022-10-04T16:56:20.192Z,14.19
2022-10-04T17:01:28.965Z,13.98
2022-10-04T17:06:33.890Z,13.95
2022-10-04T17:12:00.178Z,13.75
2022-10-04T17:17:25.361Z,13.76
2022-10-04T17:22:33.312Z,13.67
2022-10-04T17:27:59.884Z,13.55
2022-10-04T17:33:43.675Z,13.48
2022-10-04T17:38:56.775Z,13.34
2022-10-04T17:44:36.954Z,13.33
2022-10-04T17:50:12.704Z,13.19
2022-10-04T17:55:44.137Z,13.19
2022-10-04T18:01:45.571Z,13.11
2022-10-04T18:07:17.451Z,13.06
2022-10-04T18:12:54.739Z,13.02
2022-10-04T18:18:11.055Z,12.85
2022-10-04T18:23:21.320Z,12.78
2022-10-04T18:28:24.969Z,12.69
2022-10-04T18:33:49.301Z,12.69
2022-10-04T18:39:03.762Z,12.55
2022-10-04T18:44:14.678Z,12.52
2022-10-04T18:49:30.783Z,12.40
2022-10-04T18:54:49.636Z,12.36
2022-10-04T19:00:19.690Z,12.22
2022-10-04T19:05:52.277Z,12.20
2022-10-04T19:11:02.845Z,12.16
2022-10-04T19:16:20.330Z,12.06
2022-10-04T19:21:40.384Z,12.02
2022-10-04T19:26:46.594Z,11.92
2022-10-04T19:32:00.766Z,11.88
2022-10-04T19:37:09.487Z,11.86
2022-10-04T19:42:19.469Z,11.76
2022-10-04T19:47:39.704Z,11.73
2022-10-04T19:52:53.359Z,11.68
2022-10-04T19:58:13.254Z,11.64
2022-10-04T20:03:15.251Z,11.56
2022-10-04T20:08:44.990Z,11.52
2022-10-04T20:14:07.212Z,11.49
2022-10-04T20:19:27.486Z,11.46
2022-10-04T20:24:39.409Z,11.42
2022-10-04T20:29:41.417Z,11.38
2022-10-04T20:34:43.239Z,11.34
2022-10-04T20:39:45.313Z,11.27
2022-10-04T20:45:01.873Z,11.26
2022-10-04T20:50:34.085Z,11.20
2022-10-04T20:55:38.887Z,11.22
2022-10-04T21:00:54.421Z,11.15
2022-10-04T21:06:02.665Z,11.13
2022-10-04T21:11:20.655Z,11.12
2022-10-04T21:16:43.476Z,11.01
2022-10-04T21:21:49.587Z,11.03
2022-10-04T21:26:57.893Z,10.99
2022-10-04T21:32:00.386Z,10.95
2022-10-04T21:37:02.356Z,10.88
2022-10-04T21:42:04.670Z,10.92
2022-10-04T21:47:06.641Z,10.86
2022-10-04T21:52:08.689Z,10.87
2022-10-04T21:57:11.252Z,10.87
2022-10-04T22:02:13.171Z,10.87
2022-10-04T22:07:15.127Z,10.83
2022-10-04T22:12:17.022Z,10.70
2022-10-04T22:17:18.900Z,10.65
2022-10-04T22:22:21.011Z,10.68
2022-10-04T22:27:23.224Z,10.65
2022-10-04T22:32:27.254Z,10.64
2022-10-04T22:37:31.123Z,10.60
2022-10-04T22:42:33.116Z,10.67
2022-10-04T22:47:35.363Z,10.68
2022-10-04T22:52:37.478Z,10.79
2022-10-04T22:57:39.473Z,10.85
2022-10-04T23:02:41.759Z,10.93
2022-10-04T23:07:44.929Z,10.97
2022-10-04T23:12:49.279Z,10.89
2022-10-04T23:17:55.339Z,11.01
2022-10-04T23:22:59.901Z,10.97
2022-10-04T23:28:07.879Z,10.89
2022-10-04T23:33:17.927Z,10.90
2022-10-04T23:38:21.987Z,10.87
2022-10-04T23:43:25.664Z,10.87
2022-10-04T23:48:29.002Z,10.90
2022-10-04T23:53:33.081Z,10.88
2022-10-04T23:58:38.950Z,10.84
